Time;durP1;ratioP1;P1;durP2;ratioP2;P2;SDS_P1;SDS_P2;PMS_P1;PMS_P2;Temp;Humidity;BMP_temperature;BMP_pressure;BME280_temperature;BME280_humidity;BME280_pressure;Samples;Min_cycle;Max_cycle;Signal;HPM_P1;HPM_P2
2021/05/11 00:02:21;;;;;;;5.23;2.97;;;13.60;99.90;;;;;;5124730;27;20185;-56
2021/05/11 00:04:47;;;;;;;7.63;2.77;;;13.60;99.90;;;;;;5121232;27;21037;-53
2021/05/11 00:07:13;;;;;;;3.17;2.50;;;13.60;99.90;;;;;;5129011;27;20193;-57
2021/05/11 00:09:39;;;;;;;4.70;3.07;;;13.60;99.90;;;;;;5137831;27;20240;-54
2021/05/11 00:12:07;;;;;;;3.27;2.87;;;13.60;99.90;;;;;;5114061;27;20214;-52
2021/05/11 00:14:33;;;;;;;3.43;2.63;;;13.50;99.90;;;;;;5127091;27;20226;-57
2021/05/11 00:16:59;;;;;;;2.83;2.07;;;13.50;99.90;;;;;;5102261;27;20217;-54
2021/05/11 00:19:28;;;;;;;3.03;2.40;;;13.50;99.90;;;;;;5116686;27;20428;-57
2021/05/11 00:21:54;;;;;;;6.10;2.73;;;13.50;99.90;;;;;;5126932;27;20195;-53
2021/05/11 00:24:20;;;;;;;6.77;2.50;;;13.40;99.90;;;;;;5138506;27;20309;-57
2021/05/11 00:26:46;;;;;;;5.73;2.70;;;13.40;99.90;;;;;;5124687;27;20232;-53
2021/05/11 00:29:12;;;;;;;3.67;2.33;;;13.30;99.90;;;;;;5132058;27;20245;-55
2021/05/11 00:31:39;;;;;;;5.43;2.97;;;13.30;99.90;;;;;;5125136;27;20206;-54
2021/05/11 00:34:05;;;;;;;4.90;2.67;;;13.30;99.90;;;;;;5136996;27;20220;-56
2021/05/11 00:36:32;;;;;;;6.87;2.70;;;13.30;99.90;;;;;;5141119;27;20237;-57
2021/05/11 00:38:58;;;;;;;4.93;2.63;;;13.20;99.90;;;;;;5143096;27;20192;-56
2021/05/11 00:41:24;;;;;;;3.47;2.43;;;13.20;99.90;;;;;;5125799;27;20237;-58
2021/05/11 00:43:50;;;;;;;3.30;2.40;;;13.20;99.90;;;;;;5116472;27;20212;-56
2021/05/11 00:46:18;;;;;;;4.77;2.43;;;13.20;99.90;;;;;;5135836;27;20294;-57
2021/05/11 00:48:44;;;;;;;3.07;2.30;;;13.10;99.90;;;;;;5114927;27;20195;-56
2021/05/11 00:51:11;;;;;;;5.53;2.70;;;13.10;99.90;;;;;;5127269;27;20185;-57
2021/05/11 00:53:40;;;;;;;5.47;2.60;;;13.10;99.90;;;;;;5123774;27;20219;-54
2021/05/11 00:56:07;;;;;;;3.60;2.20;;;13.10;99.90;;;;;;5117973;27;20904;-52
2021/05/11 00:58:34;;;;;;;4.20;2.60;;;13.10;99.90;;;;;;5111089;27;20209;-56
2021/05/11 01:01:00;;;;;;;3.47;2.50;;;13.10;99.90;;;;;;5120031;27;20223;-56
2021/05/11 01:03:26;;;;;;;7.13;2.40;;;13.00;99.90;;;;;;5122983;27;20780;-52
2021/05/11 01:05:52;;;;;;;3.53;3.23;;;13.00;99.90;;;;;;5121929;27;20604;-56
2021/05/11 01:08:18;;;;;;;5.03;2.10;;;13.00;99.90;;;;;;5121710;27;20181;-53
2021/05/11 01:10:45;;;;;;;4.27;2.77;;;13.00;99.90;;;;;;5122709;27;20185;-58
2021/05/11 01:13:12;;;;;;;3.80;2.63;;;12.90;99.90;;;;;;5124054;27;20898;-54
2021/05/11 01:15:41;;;;;;;4.50;2.60;;;12.90;99.90;;;;;;5118555;27;20208;-52
2021/05/11 01:18:09;;;;;;;5.53;3.23;;;12.90;99.90;;;;;;5126653;27;20299;-54
2021/05/11 01:20:39;;;;;;;7.33;3.00;;;12.90;99.90;;;;;;5110680;27;20205;-54
2021/05/11 01:23:24;;;;;;;4.83;3.17;;;12.90;99.90;;;;;;5131394;27;20238;-51
2021/05/11 01:25:53;;;;;;;6.20;3.20;;;12.90;99.90;;;;;;5104552;27;20203;-58
2021/05/11 01:28:23;;;;;;;7.23;3.63;;;12.90;99.90;;;;;;5100604;28;20193;-50
2021/05/11 01:31:11;;;;;;;9.63;4.40;;;12.90;99.90;;;;;;5116704;27;20211;-56
2021/05/11 01:45:18;;;;;;;6.07;3.97;;;12.80;99.90;;;;;;5102752;28;20220;-53
2021/05/11 01:47:55;;;;;;;7.07;4.27;;;12.80;99.90;;;;;;5134348;27;20726;-58
2021/05/11 01:50:24;;;;;;;6.87;3.90;;;12.70;99.90;;;;;;5145635;27;20188;-51
2021/05/11 01:53:03;;;;;;;5.30;3.80;;;12.70;99.90;;;;;;5146619;27;20206;-57
2021/05/11 01:55:40;;;;;;;7.63;4.50;;;12.70;99.90;;;;;;5148190;27;20195;-56
2021/05/11 02:22:51;;;;;;;4.80;3.20;;;12.50;99.90;;;;;;5143110;27;20184;-58
2021/05/11 02:25:17;;;;;;;5.13;2.77;;;12.50;99.90;;;;;;5129142;27;20261;-55
2021/05/11 02:27:45;;;;;;;6.60;2.63;;;12.40;99.90;;;;;;5129007;27;20189;-56
2021/05/11 02:30:12;;;;;;;3.17;2.80;;;12.40;99.90;;;;;;5128863;27;20208;-52
2021/05/11 02:32:40;;;;;;;2.53;2.33;;;12.40;99.90;;;;;;5115494;27;20196;-54
2021/05/11 02:35:07;;;;;;;5.80;2.73;;;12.40;99.90;;;;;;5128773;27;20257;-56
2021/05/11 02:37:34;;;;;;;5.57;2.70;;;12.30;99.90;;;;;;5143016;27;20212;-56
2021/05/11 02:40:00;;;;;;;7.07;2.77;;;12.30;99.90;;;;;;5124682;27;20605;-56
2021/05/11 02:42:26;;;;;;;3.80;2.20;;;12.30;99.90;;;;;;5137304;27;20192;-54
2021/05/11 02:44:55;;;;;;;4.40;2.20;;;12.30;99.90;;;;;;5111188;27;20215;-57
2021/05/11 02:47:21;;;;;;;4.83;2.33;;;12.30;99.90;;;;;;5120651;27;20211;-52
2021/05/11 02:49:49;;;;;;;4.87;2.70;;;12.20;99.90;;;;;;5134438;27;20192;-57
2021/05/11 02:52:16;;;;;;;5.17;2.63;;;12.30;99.90;;;;;;5123729;27;20275;-52
2021/05/11 02:54:42;;;;;;;4.70;2.30;;;12.30;99.90;;;;;;5137936;27;20216;-53
2021/05/11 02:57:09;;;;;;;3.97;2.43;;;12.20;99.90;;;;;;5141830;27;20236;-54
2021/05/11 02:59:35;;;;;;;3.07;2.00;;;12.20;99.90;;;;;;5124717;27;20222;-51
2021/05/11 03:02:02;;;;;;;2.30;2.10;;;12.10;99.90;;;;;;5134567;27;20188;-56
2021/05/11 03:04:30;;;;;;;3.37;2.37;;;12.10;99.90;;;;;;5124778;27;20318;-53
2021/05/11 03:06:57;;;;;;;5.20;2.60;;;12.10;99.90;;;;;;5123432;27;20220;-56
2021/05/11 03:09:24;;;;;;;5.97;2.93;;;12.10;99.90;;;;;;5135895;27;20731;-51
2021/05/11 03:11:51;;;;;;;3.87;2.80;;;12.10;99.90;;;;;;5135917;27;20961;-54
2021/05/11 03:14:17;;;;;;;4.87;2.80;;;12.20;99.90;;;;;;5123968;27;20290;-55
2021/05/11 03:16:43;;;;;;;5.57;2.70;;;12.10;99.90;;;;;;5104756;28;20217;-54
2021/05/11 03:19:10;;;;;;;5.70;2.70;;;12.00;99.90;;;;;;5110240;27;20228;-53
2021/05/11 03:21:37;;;;;;;7.23;2.67;;;12.00;99.90;;;;;;5134230;27;20196;-50
2021/05/11 03:24:04;;;;;;;4.97;2.43;;;12.00;99.90;;;;;;5133747;27;20219;-57
2021/05/11 03:26:30;;;;;;;5.87;2.40;;;12.00;99.90;;;;;;5141146;27;20215;-57
2021/05/11 03:28:56;;;;;;;4.13;2.63;;;11.90;99.90;;;;;;5139998;27;20192;-57
2021/05/11 03:31:22;;;;;;;3.17;2.43;;;11.90;99.90;;;;;;5144523;27;20191;-51
2021/05/11 03:33:48;;;;;;;4.47;2.70;;;11.90;99.90;;;;;;5132169;27;20212;-56
2021/05/11 03:36:15;;;;;;;5.37;2.73;;;11.90;99.90;;;;;;5119376;27;20212;-53
2021/05/11 03:38:43;;;;;;;2.83;2.60;;;11.90;99.90;;;;;;5128694;27;20904;-53
2021/05/11 03:41:09;;;;;;;6.47;2.40;;;11.90;99.90;;;;;;5132903;27;20362;-51
2021/05/11 03:43:45;;;;;;;3.97;2.50;;;11.90;99.90;;;;;;5145667;27;20238;-52
2021/05/11 03:46:11;;;;;;;3.83;2.10;;;11.90;99.90;;;;;;5140283;27;20183;-54
2021/05/11 03:48:37;;;;;;;5.13;2.20;;;11.80;99.90;;;;;;5129724;27;20188;-56
2021/05/11 03:51:06;;;;;;;5.87;1.97;;;11.70;99.90;;;;;;5125671;27;20202;-56
2021/05/11 03:53:33;;;;;;;4.17;2.10;;;11.70;99.90;;;;;;5129165;27;20233;-54
2021/05/11 03:56:00;;;;;;;3.30;1.50;;;11.60;99.90;;;;;;5100669;28;20193;-57
2021/05/11 03:58:26;;;;;;;3.80;1.57;;;11.60;99.90;;;;;;5103332;28;20221;-55
2021/05/11 04:00:53;;;;;;;3.87;1.50;;;11.60;99.90;;;;;;5095720;27;20254;-56
2021/05/11 04:03:19;;;;;;;3.63;1.17;;;11.50;99.90;;;;;;5114181;27;20283;-55
2021/05/11 04:05:45;;;;;;;3.50;1.40;;;11.50;99.90;;;;;;5114260;27;20674;-57
2021/05/11 04:08:16;;;;;;;2.07;1.40;;;11.50;99.90;;;;;;5106910;27;20220;-51
2021/05/11 04:10:46;;;;;;;2.87;1.13;;;11.60;99.90;;;;;;5134798;27;20215;-58
2021/05/11 04:13:35;;;;;;;4.33;1.23;;;11.60;99.90;;;;;;5128556;27;20965;-51
2021/05/11 04:16:21;;;;;;;6.23;1.47;;;11.60;99.90;;;;;;5103218;27;20200;-55
2021/05/11 04:18:47;;;;;;;1.87;1.37;;;11.60;99.90;;;;;;5118202;27;20519;-55
2021/05/11 04:21:13;;;;;;;2.53;1.53;;;11.60;99.90;;;;;;5115982;27;20249;-56
2021/05/11 04:23:39;;;;;;;4.27;1.40;;;11.60;99.90;;;;;;5110320;27;20410;-53
2021/05/11 04:26:06;;;;;;;3.03;1.20;;;11.70;99.90;;;;;;5121365;27;20208;-57
2021/05/11 04:28:33;;;;;;;3.93;1.60;;;11.60;99.90;;;;;;5122626;27;20196;-54
2021/05/11 04:30:59;;;;;;;5.17;1.50;;;11.60;99.90;;;;;;5131783;27;20195;-53
2021/05/11 04:33:26;;;;;;;4.93;1.70;;;11.60;99.90;;;;;;5102004;27;20282;-56
2021/05/11 04:35:53;;;;;;;3.20;1.50;;;11.50;99.90;;;;;;5117197;27;20200;-52
2021/05/11 04:38:19;;;;;;;3.83;1.60;;;11.50;99.90;;;;;;5107431;27;20213;-55
2021/05/11 04:40:46;;;;;;;4.40;1.67;;;11.60;99.90;;;;;;5128700;27;20253;-54
2021/05/11 04:43:12;;;;;;;3.63;1.73;;;11.60;99.90;;;;;;5143347;27;20216;-55
2021/05/11 04:45:39;;;;;;;7.83;2.20;;;11.60;99.90;;;;;;5142211;27;21003;-51
2021/05/11 04:48:05;;;;;;;3.33;1.70;;;11.60;99.90;;;;;;5127071;27;20200;-49
2021/05/11 04:50:31;;;;;;;2.90;1.40;;;11.60;99.90;;;;;;5122286;27;20196;-48
2021/05/11 04:52:58;;;;;;;4.70;1.90;;;11.60;99.90;;;;;;5101062;27;20220;-56
2021/05/11 04:55:24;;;;;;;4.13;1.70;;;11.60;99.90;;;;;;5106169;27;20204;-53
2021/05/11 04:57:50;;;;;;;2.37;1.70;;;11.70;99.90;;;;;;5122116;27;20221;-50
2021/05/11 05:00:18;;;;;;;4.37;1.80;;;11.70;99.90;;;;;;5113948;27;20188;-48
2021/05/11 05:02:45;;;;;;;3.00;2.07;;;11.60;99.90;;;;;;5129392;27;20230;-49
2021/05/11 05:05:12;;;;;;;4.37;1.90;;;11.70;99.90;;;;;;5112140;27;20234;-55
2021/05/11 05:07:39;;;;;;;3.10;2.00;;;11.70;99.90;;;;;;5103138;27;20660;-53
2021/05/11 05:10:07;;;;;;;2.03;1.83;;;11.70;99.90;;;;;;5116996;27;20230;-57
2021/05/11 05:12:33;;;;;;;4.33;1.80;;;11.70;99.90;;;;;;5134652;27;20606;-48
2021/05/11 05:14:59;;;;;;;4.70;2.30;;;11.70;99.90;;;;;;5112000;27;20347;-56
2021/05/11 05:17:26;;;;;;;4.30;2.20;;;11.70;99.90;;;;;;5124809;27;20320;-53
2021/05/11 05:19:53;;;;;;;5.23;2.23;;;11.70;99.90;;;;;;5109743;27;20200;-51
2021/05/11 05:22:19;;;;;;;2.77;1.90;;;11.70;99.90;;;;;;5124910;27;20191;-49
2021/05/11 05:24:48;;;;;;;5.40;1.80;;;11.60;99.90;;;;;;5099154;27;20305;-49
2021/05/11 05:27:19;;;;;;;6.33;2.10;;;11.60;99.90;;;;;;5115839;27;20250;-48
2021/05/11 05:29:45;;;;;;;7.40;2.23;;;11.60;99.90;;;;;;5113348;27;20212;-51
2021/05/11 05:32:11;;;;;;;4.67;2.00;;;11.60;99.90;;;;;;5136080;27;20693;-49
2021/05/11 05:34:38;;;;;;;4.77;2.20;;;11.60;99.90;;;;;;5141650;27;20714;-55
2021/05/11 05:37:05;;;;;;;3.13;2.07;;;11.60;99.90;;;;;;5124738;27;20766;-56
2021/05/11 05:39:34;;;;;;;2.33;1.30;;;11.60;99.90;;;;;;5129422;27;20204;-49
2021/05/11 05:42:01;;;;;;;6.00;2.30;;;11.60;99.90;;;;;;5122139;27;20209;-57
2021/05/11 05:44:27;;;;;;;5.73;1.97;;;11.60;99.90;;;;;;5141855;27;20404;-52
2021/05/11 05:46:53;;;;;;;5.57;1.97;;;11.60;99.90;;;;;;5129862;27;20207;-56
2021/05/11 05:49:20;;;;;;;4.53;1.90;;;11.60;99.90;;;;;;5120908;27;20280;-48
2021/05/11 05:51:48;;;;;;;3.00;1.90;;;11.60;99.90;;;;;;5098957;27;20212;-54
2021/05/11 05:54:15;;;;;;;7.13;1.90;;;11.60;99.90;;;;;;5111387;27;20229;-51
2021/05/11 05:56:41;;;;;;;3.00;1.60;;;11.60;99.90;;;;;;5106520;27;21883;-57
2021/05/11 05:59:07;;;;;;;4.30;1.87;;;11.60;99.90;;;;;;5112857;27;20215;-49
2021/05/11 06:01:34;;;;;;;5.50;2.10;;;11.50;99.90;;;;;;5105556;27;20284;-56
2021/05/11 06:04:06;;;;;;;5.07;2.37;;;11.50;99.90;;;;;;5107255;27;20216;-54
2021/05/11 06:06:32;;;;;;;1.70;1.50;;;11.50;99.90;;;;;;5132973;27;20188;-54
2021/05/11 06:09:00;;;;;;;5.93;2.03;;;11.40;99.90;;;;;;5133376;27;20201;-48
2021/05/11 06:11:32;;;;;;;4.63;2.03;;;11.50;99.90;;;;;;5110215;27;20532;-54
2021/05/11 06:14:08;;;;;;;4.33;1.97;;;11.50;99.90;;;;;;5130069;27;20313;-54
2021/05/11 06:19:20;;;;;;;5.63;1.90;;;11.40;99.90;;;;;;5119401;27;20200;-54
2021/05/11 06:21:46;;;;;;;5.87;1.77;;;11.40;99.90;;;;;;5111779;27;20288;-50
2021/05/11 06:24:13;;;;;;;4.00;1.70;;;11.40;99.90;;;;;;5133278;27;20212;-53
2021/05/11 06:26:39;;;;;;;5.60;1.60;;;11.40;99.90;;;;;;5101846;27;20203;-52
2021/05/11 06:29:08;;;;;;;3.03;1.63;;;11.40;99.90;;;;;;5117676;27;20204;-48
2021/05/11 06:31:34;;;;;;;4.07;1.67;;;11.40;99.90;;;;;;5124672;27;20177;-48
2021/05/11 06:34:01;;;;;;;4.07;1.77;;;11.40;99.90;;;;;;5120953;27;20220;-50
2021/05/11 06:36:27;;;;;;;4.77;1.90;;;11.40;99.90;;;;;;5124746;27;20223;-56
2021/05/11 06:38:53;;;;;;;2.10;1.90;;;11.40;99.90;;;;;;5125791;27;20221;-49
2021/05/11 06:41:21;;;;;;;5.10;1.93;;;11.40;99.90;;;;;;5114063;27;20563;-56
2021/05/11 06:43:47;;;;;;;4.40;1.53;;;11.40;99.90;;;;;;5109809;27;20229;-49
2021/05/11 06:49:12;;;;;;;3.63;1.87;;;11.40;99.90;;;;;;5130789;27;20251;-54
2021/05/11 06:54:23;;;;;;;5.30;1.83;;;11.30;99.90;;;;;;5119979;27;20220;-57
2021/05/11 06:56:50;;;;;;;6.30;1.80;;;11.30;99.90;;;;;;5098500;27;20208;-48
2021/05/11 06:59:16;;;;;;;5.10;2.10;;;11.30;99.90;;;;;;5126296;27;20262;-57
2021/05/11 07:01:42;;;;;;;4.47;1.60;;;11.30;99.90;;;;;;5125166;27;20208;-52
2021/05/11 07:04:08;;;;;;;5.57;1.50;;;11.30;99.90;;;;;;5120415;27;20216;-53
2021/05/11 07:06:36;;;;;;;3.13;1.60;;;11.30;99.90;;;;;;5098241;27;20264;-57
2021/05/11 07:09:07;;;;;;;3.97;1.30;;;11.30;99.90;;;;;;5135292;27;20567;-53
2021/05/11 07:13:07;;;;;;;2.13;1.73;;;11.30;99.90;;;;;;5096196;27;20866;-49
2021/05/11 07:14:21;;;;;;;4.80;1.37;;;11.30;99.90;;;;;;5111691;27;20302;-57
2021/05/11 07:16:47;;;;;;;2.67;1.80;;;11.30;99.90;;;;;;5128022;27;20196;-54
2021/05/11 07:19:13;;;;;;;5.43;1.60;;;11.30;99.90;;;;;;5124631;27;20208;-56
2021/05/11 07:21:39;;;;;;;4.27;1.40;;;11.20;99.90;;;;;;5116779;27;20200;-54
2021/05/11 07:24:06;;;;;;;2.87;1.43;;;11.20;99.90;;;;;;5107407;27;20221;-54
2021/05/11 07:26:32;;;;;;;4.20;1.27;;;11.20;99.90;;;;;;5105958;27;20266;-59
2021/05/11 07:29:09;;;;;;;3.47;1.40;;;11.20;99.90;;;;;;5118881;27;20600;-54
2021/05/11 07:31:37;;;;;;;4.27;1.40;;;11.20;99.90;;;;;;5115683;27;20188;-56
2021/05/11 07:34:05;;;;;;;1.83;1.20;;;11.20;99.90;;;;;;5111752;27;20300;-59
2021/05/11 07:36:33;;;;;;;2.03;1.33;;;11.20;99.90;;;;;;5117069;27;20680;-60
2021/05/11 07:38:59;;;;;;;3.60;1.77;;;11.20;99.90;;;;;;5117518;27;20259;-57
2021/05/11 07:41:26;;;;;;;4.00;1.30;;;11.20;99.90;;;;;;5119942;27;20211;-60
2021/05/11 07:43:55;;;;;;;3.23;1.40;;;11.20;99.90;;;;;;5128247;27;20570;-55
2021/05/11 07:46:39;;;;;;;3.83;1.20;;;11.20;99.90;;;;;;5101353;27;20279;-60
2021/05/11 07:49:23;;;;;;;2.57;1.63;;;11.20;99.90;;;;;;5123310;27;20570;-56
2021/05/11 07:52:24;;;;;;;5.03;1.57;;;11.20;99.90;;;;;;5102313;27;20304;-52
2021/05/11 08:03:29;;;;;;;3.83;1.47;;;11.20;99.90;;;;;;5120045;27;20246;-58
2021/05/11 08:16:55;;;;;;;2.80;1.30;;;11.30;99.90;;;;;;5116592;27;20280;-59
2021/05/11 08:19:40;;;;;;;2.50;1.27;;;11.30;99.90;;;;;;5116672;27;20283;-60
2021/05/11 08:27:45;;;;;;;2.57;0.80;;;11.40;99.90;;;;;;5112830;27;20196;-57
2021/05/11 08:30:13;;;;;;;6.20;1.70;;;11.30;99.90;;;;;;5133790;27;20224;-60
2021/05/11 08:32:39;;;;;;;5.80;1.20;;;11.40;99.90;;;;;;5118034;27;20273;-54
2021/05/11 08:35:07;;;;;;;4.60;1.27;;;11.40;99.90;;;;;;5122327;27;20300;-56
2021/05/11 08:37:34;;;;;;;3.93;1.00;;;11.30;99.90;;;;;;5100103;27;20213;-57
2021/05/11 08:40:00;;;;;;;4.70;1.07;;;11.30;99.90;;;;;;5099439;27;20201;-57
2021/05/11 08:42:27;;;;;;;3.43;1.00;;;11.40;99.90;;;;;;5108502;27;20192;-60
2021/05/11 08:44:53;;;;;;;1.83;1.23;;;11.50;99.90;;;;;;5107564;27;20258;-59
2021/05/11 08:47:20;;;;;;;2.97;1.40;;;11.50;99.90;;;;;;5104166;27;20203;-60
2021/05/11 08:49:47;;;;;;;2.47;1.33;;;11.50;99.90;;;;;;5127366;27;20919;-59
2021/05/11 08:52:20;;;;;;;4.67;1.10;;;11.60;99.90;;;;;;5143282;27;20203;-59
2021/05/11 08:55:03;;;;;;;3.80;1.20;;;11.60;99.90;;;;;;5109920;27;20216;-57
2021/05/11 09:09:01;;;;;;;1.93;1.23;;;11.60;99.90;;;;;;5090820;27;20470;-60
2021/05/11 09:14:52;;;;;;;5.43;1.43;;;11.60;99.90;;;;;;5110641;27;20224;-60
2021/05/11 09:25:41;;;;;;;7.77;4.50;;;11.80;99.90;;;;;;5101271;27;20490;-58
2021/05/11 09:28:31;;;;;;;4.10;1.23;;;11.80;99.90;;;;;;5118871;27;20219;-56
2021/05/11 09:31:04;;;;;;;3.00;1.00;;;11.90;99.90;;;;;;5099263;27;20269;-56
2021/05/11 09:33:33;;;;;;;2.07;1.47;;;11.80;99.90;;;;;;5102861;27;20794;-57
2021/05/11 10:42:25;;;;;;;2.67;1.47;;;13.20;99.90;;;;;;5131621;27;20188;-54
2021/05/11 10:48:21;;;;;;;3.13;1.07;;;13.30;99.90;;;;;;5122191;27;20237;-56
2021/05/11 10:50:50;;;;;;;2.40;0.90;;;13.40;99.90;;;;;;5124525;27;20246;-53
2021/05/11 10:53:40;;;;;;;3.50;1.20;;;13.40;99.90;;;;;;5099818;27;20401;-61
2021/05/11 10:56:52;;;;;;;1.60;0.67;;;13.50;99.90;;;;;;5115325;27;20206;-56
2021/05/11 10:59:27;;;;;;;3.77;1.00;;;13.50;99.90;;;;;;5132293;27;20200;-60
2021/05/11 11:01:57;;;;;;;1.47;1.07;;;13.50;99.90;;;;;;5124704;27;20283;-57
2021/05/11 11:04:26;;;;;;;3.23;1.10;;;13.60;99.90;;;;;;5123372;27;20228;-59
2021/05/11 11:07:04;;;;;;;3.93;1.00;;;13.70;99.90;;;;;;5141271;27;20202;-52
2021/05/11 11:09:32;;;;;;;5.93;0.83;;;13.90;99.90;;;;;;5109838;27;20506;-55
2021/05/11 11:12:00;;;;;;;2.43;1.10;;;14.10;99.90;;;;;;5145231;27;20627;-57
2021/05/11 11:14:34;;;;;;;2.30;1.10;;;14.30;99.90;;;;;;5104208;27;20261;-60
2021/05/11 11:17:01;;;;;;;2.97;0.87;;;14.50;99.90;;;;;;5117354;27;20196;-54
2021/05/11 11:19:27;;;;;;;1.87;0.87;;;14.60;99.90;;;;;;5112166;27;20208;-59
2021/05/11 11:22:03;;;;;;;2.67;0.97;;;14.70;99.90;;;;;;5109613;27;20238;-59
2021/05/11 11:24:32;;;;;;;1.43;0.70;;;14.70;99.90;;;;;;5113323;27;20952;-60
2021/05/11 11:26:59;;;;;;;4.00;1.03;;;14.70;99.90;;;;;;5125808;27;20634;-59
2021/05/11 11:29:27;;;;;;;2.33;0.70;;;14.70;99.90;;;;;;5131476;27;20279;-60
2021/05/11 11:31:54;;;;;;;1.30;0.80;;;14.70;99.90;;;;;;5136602;27;20185;-59
2021/05/11 11:34:22;;;;;;;1.87;0.60;;;14.70;99.90;;;;;;5127292;27;20283;-61
2021/05/11 11:36:55;;;;;;;2.10;1.03;;;14.70;99.90;;;;;;5115228;27;20189;-59
2021/05/11 11:39:24;;;;;;;2.50;0.90;;;14.70;99.90;;;;;;5094303;27;20303;-61
2021/05/11 11:41:54;;;;;;;2.67;0.90;;;14.80;99.90;;;;;;5128170;27;20564;-59
2021/05/11 11:44:22;;;;;;;6.27;3.57;;;14.80;99.90;;;;;;5105358;27;20247;-61
2021/05/11 11:46:59;;;;;;;1.80;1.17;;;14.90;99.90;;;;;;5115619;27;20269;-57
2021/05/11 11:49:27;;;;;;;2.00;0.60;;;15.10;99.90;;;;;;5113915;27;20206;-61
2021/05/11 11:51:58;;;;;;;2.60;0.90;;;15.00;99.90;;;;;;5125482;27;20220;-58
2021/05/11 11:54:31;;;;;;;1.93;0.83;;;14.90;99.90;;;;;;5120774;27;20236;-61
2021/05/11 11:59:56;;;;;;;2.20;0.63;;;14.70;99.90;;;;;;5136444;27;20928;-59
2021/05/11 12:02:22;;;;;;;3.90;0.93;;;14.60;99.90;;;;;;5103886;27;20228;-62
2021/05/11 12:04:49;;;;;;;1.53;0.73;;;14.50;99.90;;;;;;5099390;27;20313;-59
2021/05/11 12:07:17;;;;;;;1.63;0.80;;;14.50;99.90;;;;;;5124230;27;20208;-61
2021/05/11 12:09:46;;;;;;;0.90;0.50;;;14.60;99.90;;;;;;5117015;27;20203;-60
2021/05/11 12:12:15;;;;;;;3.57;0.63;;;14.60;99.90;;;;;;5111873;27;20266;-62
2021/05/11 12:14:41;;;;;;;1.93;0.70;;;14.70;99.90;;;;;;5125280;27;20828;-59
2021/05/11 12:17:07;;;;;;;3.77;0.77;;;14.70;99.90;;;;;;5129256;27;20197;-58
2021/05/11 12:19:34;;;;;;;2.57;0.60;;;14.80;99.90;;;;;;5097671;27;20192;-60
2021/05/11 12:22:04;;;;;;;2.60;0.97;;;14.80;99.90;;;;;;5121431;27;20627;-58
2021/05/11 12:24:34;;;;;;;2.67;0.70;;;14.90;99.90;;;;;;5118619;27;20211;-60
2021/05/11 12:27:15;;;;;;;1.83;0.90;;;14.90;99.90;;;;;;5108661;27;20199;-60
2021/05/11 12:29:59;;;;;;;1.70;0.70;;;14.90;99.90;;;;;;5110114;27;20909;-58
2021/05/11 12:32:26;;;;;;;2.63;0.90;;;14.90;99.90;;;;;;5122818;27;20279;-60
2021/05/11 12:35:08;;;;;;;1.80;0.70;;;14.90;99.90;;;;;;5134893;27;20295;-60
2021/05/11 12:37:49;;;;;;;1.47;0.90;;;14.90;99.90;;;;;;5108612;27;20265;-61
2021/05/11 12:40:25;;;;;;;3.50;0.93;;;14.80;99.90;;;;;;5130297;27;20222;-60
2021/05/11 12:42:53;;;;;;;3.50;0.87;;;14.80;99.90;;;;;;5110896;27;20666;-60
2021/05/11 12:45:19;;;;;;;2.07;0.70;;;14.70;99.90;;;;;;5126201;27;20213;-60
2021/05/11 12:47:48;;;;;;;3.23;0.80;;;14.80;99.90;;;;;;5125694;27;20181;-60
2021/05/11 12:50:16;;;;;;;2.70;0.60;;;14.90;99.90;;;;;;5131726;27;20210;-61
2021/05/11 12:52:44;;;;;;;4.43;0.80;;;15.00;99.90;;;;;;5102777;27;20189;-58
2021/05/11 12:55:17;;;;;;;1.73;0.60;;;14.90;99.90;;;;;;5120255;27;20228;-61
2021/05/11 12:57:56;;;;;;;2.33;0.50;;;14.90;99.90;;;;;;5114076;27;20220;-60
2021/05/11 13:00:36;;;;;;;2.33;0.83;;;14.90;99.90;;;;;;5105783;27;20204;-61
2021/05/11 13:03:16;;;;;;;4.50;1.17;;;14.90;99.90;;;;;;5131845;27;20240;-60
2021/05/11 13:17:00;;;;;;;3.80;1.10;;;14.80;99.90;;;;;;5081644;27;20269;-59
2021/05/11 13:19:58;;;;;;;2.13;0.90;;;14.70;99.90;;;;;;5125028;27;20219;-60
2021/05/11 13:22:30;;;;;;;2.03;0.90;;;14.70;99.90;;;;;;5107023;27;20272;-61
2021/05/11 13:25:11;;;;;;;2.30;1.00;;;14.70;99.90;;;;;;5127576;27;20243;-60
2021/05/11 13:27:42;;;;;;;1.10;0.87;;;14.70;99.90;;;;;;5113021;27;20307;-55
2021/05/11 13:30:25;;;;;;;2.40;0.80;;;14.60;99.90;;;;;;5120814;27;20216;-61
2021/05/11 13:33:00;;;;;;;3.17;1.00;;;14.60;99.90;;;;;;5118933;27;20323;-59
2021/05/11 13:35:27;;;;;;;1.77;1.10;;;14.60;99.90;;;;;;5121042;27;20598;-61
2021/05/11 13:37:53;;;;;;;2.80;1.23;;;14.60;99.90;;;;;;5124356;27;20791;-58
2021/05/11 13:40:19;;;;;;;3.10;1.03;;;14.60;99.90;;;;;;5116062;27;20194;-61
2021/05/11 13:42:46;;;;;;;2.57;1.00;;;14.60;99.90;;;;;;5118849;27;20222;-59
2021/05/11 13:45:12;;;;;;;3.00;1.13;;;14.60;99.90;;;;;;5122483;27;20212;-61
2021/05/11 13:47:40;;;;;;;1.13;1.03;;;14.60;99.90;;;;;;5122416;27;20200;-60
2021/05/11 13:50:11;;;;;;;2.43;1.30;;;14.60;99.90;;;;;;5125218;27;20201;-60
2021/05/11 13:52:37;;;;;;;3.10;0.97;;;14.60;99.90;;;;;;5108867;27;20212;-58
2021/05/11 13:55:08;;;;;;;4.77;1.13;;;14.60;99.90;;;;;;5114311;27;20205;-60
2021/05/11 14:03:01;;;;;;;2.93;1.20;;;14.70;99.90;;;;;;5108024;27;20570;-58
2021/05/11 14:05:28;;;;;;;2.93;1.00;;;14.80;99.90;;;;;;5105521;27;20208;-61
2021/05/11 14:07:54;;;;;;;4.03;1.20;;;14.80;99.90;;;;;;5116914;27;20715;-59
2021/05/11 14:10:21;;;;;;;3.17;1.17;;;14.80;99.90;;;;;;5103219;28;20630;-61
2021/05/11 14:12:48;;;;;;;1.60;0.83;;;14.80;99.90;;;;;;5119917;27;20292;-58
2021/05/11 14:15:14;;;;;;;1.80;1.00;;;14.80;99.90;;;;;;5117203;27;20219;-61
2021/05/11 14:17:40;;;;;;;1.60;0.83;;;14.80;99.90;;;;;;5135622;27;20196;-59
2021/05/11 14:20:08;;;;;;;3.00;0.80;;;14.80;99.90;;;;;;5136882;27;20203;-57
2021/05/11 14:22:35;;;;;;;1.33;0.90;;;14.90;99.90;;;;;;5125350;27;20219;-59
2021/05/11 14:25:01;;;;;;;1.50;0.90;;;14.90;99.90;;;;;;5108216;27;20221;-60
2021/05/11 14:27:28;;;;;;;3.83;1.00;;;14.90;99.90;;;;;;5122409;27;20197;-60
2021/05/11 14:29:54;;;;;;;7.70;1.57;;;15.00;99.90;;;;;;5127811;27;20250;-57
2021/05/11 14:32:20;;;;;;;4.27;1.23;;;15.00;99.90;;;;;;5118523;27;20670;-61
2021/05/11 14:34:47;;;;;;;2.73;0.90;;;15.10;99.90;;;;;;5117864;27;20211;-58
2021/05/11 14:37:13;;;;;;;2.57;1.20;;;15.10;99.90;;;;;;5131945;27;20719;-61
2021/05/11 14:39:41;;;;;;;3.67;0.80;;;15.10;99.90;;;;;;5112393;27;20213;-58
2021/05/11 14:42:07;;;;;;;4.27;1.13;;;15.10;99.90;;;;;;5122411;27;20209;-58
2021/05/11 14:44:33;;;;;;;2.17;1.00;;;15.10;99.90;;;;;;5133577;27;20216;-59
2021/05/11 14:47:00;;;;;;;1.20;1.07;;;15.10;99.90;;;;;;5112947;27;20208;-60
2021/05/11 14:49:26;;;;;;;5.03;1.43;;;15.10;99.90;;;;;;5135357;27;20189;-58
2021/05/11 14:51:53;;;;;;;3.10;1.40;;;15.10;99.90;;;;;;5121725;27;20242;-61
2021/05/11 14:54:19;;;;;;;2.50;1.20;;;15.10;99.90;;;;;;5111350;27;20217;-58
2021/05/11 14:56:46;;;;;;;2.83;1.57;;;15.10;99.90;;;;;;5120525;27;20873;-57
2021/05/11 14:59:12;;;;;;;0.83;0.83;;;15.10;99.90;;;;;;5120965;27;20213;-58
2021/05/11 15:01:39;;;;;;;2.60;1.00;;;15.10;99.90;;;;;;5107011;27;20234;-58
2021/05/11 15:04:06;;;;;;;3.90;1.27;;;15.10;99.90;;;;;;5119284;27;20306;-58
2021/05/11 15:06:33;;;;;;;3.23;1.53;;;15.10;99.90;;;;;;5104391;27;20233;-58
2021/05/11 15:08:59;;;;;;;1.87;1.00;;;15.10;99.90;;;;;;5101586;27;20197;-56
2021/05/11 15:11:26;;;;;;;1.70;0.87;;;15.10;99.90;;;;;;5129002;27;20230;-59
2021/05/11 15:13:55;;;;;;;4.27;1.07;;;15.10;99.90;;;;;;5116040;27;20212;-57
2021/05/11 15:16:23;;;;;;;2.33;1.20;;;15.10;99.90;;;;;;5105408;27;20692;-61
2021/05/11 15:18:50;;;;;;;1.67;1.10;;;15.00;99.90;;;;;;5112110;27;20213;-59
2021/05/11 15:21:17;;;;;;;1.10;0.80;;;15.00;99.90;;;;;;5115160;27;20196;-62
2021/05/11 15:23:43;;;;;;;1.60;0.87;;;15.10;99.90;;;;;;5115202;27;21218;-56
2021/05/11 15:26:11;;;;;;;1.97;0.97;;;15.10;99.90;;;;;;5113711;27;20228;-58
2021/05/11 15:28:37;;;;;;;3.70;1.10;;;15.10;99.90;;;;;;5118452;27;20278;-62
2021/05/11 15:31:05;;;;;;;1.73;0.90;;;15.10;99.90;;;;;;5112906;27;20269;-62
2021/05/11 15:33:32;;;;;;;2.77;1.37;;;15.10;99.90;;;;;;5106045;27;20228;-62
2021/05/11 15:35:58;;;;;;;2.40;0.70;;;15.10;99.90;;;;;;5127325;27;20193;-62
2021/05/11 15:38:28;;;;;;;3.40;1.10;;;15.10;99.90;;;;;;5121477;27;20216;-59
2021/05/11 15:40:55;;;;;;;2.33;1.30;;;15.10;99.90;;;;;;5130827;27;20214;-55
2021/05/11 15:43:21;;;;;;;1.93;1.07;;;15.10;99.90;;;;;;5119212;27;20228;-60
2021/05/11 15:45:48;;;;;;;1.90;1.00;;;15.10;99.90;;;;;;5126801;27;20193;-60
2021/05/11 15:48:15;;;;;;;2.63;0.90;;;15.10;99.90;;;;;;5138688;27;20191;-59
2021/05/11 15:50:44;;;;;;;2.27;1.10;;;15.00;99.90;;;;;;5108889;27;20205;-61
2021/05/11 15:53:11;;;;;;;2.00;0.87;;;15.00;99.90;;;;;;5118344;27;20231;-59
2021/05/11 15:55:40;;;;;;;3.07;1.20;;;15.00;99.90;;;;;;5111563;27;20774;-61
2021/05/11 15:58:07;;;;;;;1.53;0.70;;;15.00;99.90;;;;;;5117883;27;20296;-59
2021/05/11 16:00:35;;;;;;;1.10;0.97;;;14.90;99.90;;;;;;5113606;27;20189;-59